Time;durP1;ratioP1;P1;durP2;ratioP2;P2;SDS_P1;SDS_P2;PMS_P1;PMS_P2;Temp;Humidity;BMP_temperature;BMP_pressure;BME280_temperature;BME280_humidity;BME280_pressure;Samples;Min_cycle;Max_cycle;Signal;HPM_P1;HPM_P2
2022/01/25 00:25:56;;;;;;;52.58;26.38;;;;;;;3.13;87.69;103527.81;4988199;28;20426;-77
2022/01/25 00:28:24;;;;;;;50.17;26.58;;;;;;;3.13;87.94;103525.19;4991011;28;20126;-77
2022/01/25 00:33:28;;;;;;;49.97;27.60;;;;;;;3.11;87.32;103520.78;4989820;28;20077;-76
2022/01/25 00:35:54;;;;;;;49.53;27.00;;;;;;;3.09;87.59;103525.06;4991684;28;20049;-77
2022/01/25 00:38:20;;;;;;;51.97;27.45;;;;;;;3.15;87.11;103523.50;5032406;28;20053;-77
2022/01/25 00:40:45;;;;;;;52.53;26.83;;;;;;;3.13;87.24;103533.03;5032726;28;20036;-77
2022/01/25 00:43:10;;;;;;;53.72;27.27;;;;;;;3.16;87.66;103525.25;5036525;28;20527;-77
2022/01/25 00:45:36;;;;;;;52.58;27.58;;;;;;;3.14;87.30;103526.97;5051884;28;20473;-77
2022/01/25 00:48:04;;;;;;;52.55;27.42;;;;;;;3.14;87.76;103532.19;5051865;28;20029;-77
2022/01/25 00:50:39;;;;;;;50.97;27.50;;;;;;;3.14;87.53;103514.75;5052268;28;20070;-77
2022/01/25 00:55:31;;;;;;;52.03;27.52;;;;;;;3.19;86.99;103514.91;5051705;28;20528;-77
2022/01/25 00:57:57;;;;;;;54.95;27.73;;;;;;;3.19;87.52;103509.66;5057483;28;20017;-77
2022/01/25 01:00:22;;;;;;;51.72;26.65;;;;;;;3.21;87.66;103508.84;5058837;28;20032;-77
2022/01/25 01:02:48;;;;;;;53.97;27.30;;;;;;;3.27;87.51;103511.66;5058596;28;20064;-78
2022/01/25 01:05:13;;;;;;;55.03;28.88;;;;;;;3.23;88.31;103512.38;5058012;28;20029;-77
2022/01/25 01:07:41;;;;;;;49.80;27.77;;;;;;;3.15;87.77;103513.03;5058883;28;20174;-76
2022/01/25 01:10:06;;;;;;;50.28;27.00;;;;;;;3.12;88.81;103498.13;5058629;28;20040;-77
2022/01/25 01:13:18;;;;;;;54.78;28.38;;;;;;;3.10;88.78;103500.69;5059018;28;20473;-77
2022/01/25 01:15:46;;;;;;;51.90;27.08;;;;;;;3.12;89.09;103505.97;5058201;28;20063;-77
2022/01/25 01:29:25;;;;;;;54.40;28.77;;;;;;;3.07;89.45;103502.31;4997361;28;20089;-77
2022/01/25 01:45:22;;;;;;;54.65;28.30;;;;;;;2.99;89.08;103507.31;4997046;28;20074;-77
2022/01/25 01:47:50;;;;;;;52.55;28.95;;;;;;;3.01;88.91;103507.41;4996048;28;20053;-77
2022/01/25 01:50:28;;;;;;;59.63;29.73;;;;;;;3.01;89.32;103502.16;4996481;28;20038;-78
2022/01/25 01:52:54;;;;;;;60.95;29.73;;;;;;;3.02;90.19;103494.34;4996629;28;20038;-78
2022/01/25 01:55:20;;;;;;;56.03;28.90;;;;;;;3.08;89.29;103499.75;4996789;28;20513;-77
2022/01/25 01:57:48;;;;;;;55.20;29.85;;;;;;;3.13;89.70;103499.00;4996342;28;20061;-76
2022/01/25 02:00:15;;;;;;;54.35;28.30;;;;;;;3.13;89.87;103497.25;5011121;28;20045;-77
2022/01/25 02:02:41;;;;;;;52.92;28.50;;;;;;;3.14;89.23;103500.78;5058350;28;20112;-77
2022/01/25 02:05:06;;;;;;;56.25;29.08;;;;;;;3.10;89.41;103499.81;5057923;28;20109;-77
2022/01/25 02:07:32;;;;;;;56.67;28.27;;;;;;;3.07;89.50;103492.75;5040040;28;20107;-76
2022/01/25 02:09:58;;;;;;;57.85;29.23;;;;;;;3.05;90.50;103488.31;5053435;28;20079;-77
2022/01/25 02:12:24;;;;;;;56.22;28.77;;;;;;;3.03;89.82;103488.28;5054693;28;20053;-78
2022/01/25 02:14:50;;;;;;;57.30;29.02;;;;;;;3.06;89.81;103487.47;5054855;28;20087;-78
2022/01/25 02:22:54;;;;;;;54.92;27.60;;;;;;;3.10;89.33;103481.47;5054970;28;20044;-77
2022/01/25 02:25:20;;;;;;;54.92;28.15;;;;;;;3.09;89.38;103477.06;5054787;28;20025;-77
2022/01/25 02:27:45;;;;;;;58.28;28.67;;;;;;;3.10;89.99;103471.88;5054724;28;20025;-77
2022/01/25 02:30:11;;;;;;;56.78;28.80;;;;;;;3.10;89.84;103471.88;5054532;28;20100;-78
2022/01/25 02:32:36;;;;;;;57.53;29.13;;;;;;;3.10;89.47;103476.25;5053411;28;20166;-77
2022/01/25 02:35:02;;;;;;;54.10;27.45;;;;;;;3.11;89.72;103473.66;5054467;28;20060;-77
2022/01/25 02:37:28;;;;;;;57.58;28.85;;;;;;;3.15;89.44;103479.88;5054616;28;20112;-77
2022/01/25 02:39:53;;;;;;;57.22;28.23;;;;;;;3.21;89.31;103469.56;5054139;28;20104;-78
2022/01/25 02:42:19;;;;;;;59.80;29.55;;;;;;;3.18;88.78;103463.38;5054622;28;20039;-77
2022/01/25 02:44:45;;;;;;;66.05;29.90;;;;;;;3.15;88.81;103460.66;5054547;28;20607;-78
2022/01/25 02:49:56;;;;;;;56.35;28.70;;;;;;;3.16;89.69;103465.94;5053781;28;20417;-77
2022/01/25 02:52:22;;;;;;;59.90;28.27;;;;;;;3.21;89.13;103469.56;5054001;28;20029;-78
2022/01/25 02:54:47;;;;;;;57.70;29.73;;;;;;;3.21;88.93;103471.28;5054562;28;20028;-77
2022/01/25 02:57:13;;;;;;;56.70;28.75;;;;;;;3.21;89.18;103480.06;5054438;28;20017;-77
2022/01/25 02:59:39;;;;;;;61.50;29.63;;;;;;;3.18;89.53;103479.94;5053434;28;20104;-78
2022/01/25 03:02:04;;;;;;;60.22;29.60;;;;;;;3.17;89.12;103483.44;5054174;28;20017;-77
2022/01/25 03:04:30;;;;;;;60.88;29.58;;;;;;;3.19;89.00;103486.09;5053970;28;20094;-78
2022/01/25 03:06:55;;;;;;;60.63;29.92;;;;;;;3.18;89.38;103476.47;5053096;28;20025;-77
2022/01/25 03:09:21;;;;;;;59.33;29.63;;;;;;;3.21;88.79;103484.38;5044827;28;20021;-77
2022/01/25 03:11:50;;;;;;;61.10;29.52;;;;;;;3.22;89.11;103492.31;5052499;28;20477;-77
2022/01/25 03:14:17;;;;;;;60.05;29.60;;;;;;;3.19;88.93;103484.34;5053985;28;20032;-78
2022/01/25 03:16:47;;;;;;;58.90;29.27;;;;;;;3.21;88.99;103492.25;5053706;28;20421;-77
2022/01/25 03:21:58;;;;;;;61.58;29.95;;;;;;;3.19;89.28;103486.09;5053112;28;20033;-77
2022/01/25 03:24:24;;;;;;;58.58;29.95;;;;;;;3.20;89.65;103487.88;5053451;28;20388;-78
2022/01/25 03:26:50;;;;;;;61.08;30.00;;;;;;;3.21;89.75;103484.38;5053670;28;20543;-78
2022/01/25 03:29:15;;;;;;;60.15;29.48;;;;;;;3.23;88.90;103480.97;5053292;28;20090;-78
2022/01/25 03:31:41;;;;;;;62.70;30.17;;;;;;;3.21;88.40;103463.44;5053201;28;20082;-78
2022/01/25 03:34:06;;;;;;;60.85;28.52;;;;;;;3.21;89.12;103466.97;5053547;28;20033;-78
2022/01/25 03:36:31;;;;;;;63.67;28.85;;;;;;;3.22;89.57;103475.69;5053278;28;20032;-78
2022/01/25 03:38:57;;;;;;;63.05;29.70;;;;;;;3.21;90.17;103471.28;5053332;28;20382;-76
2022/01/25 03:41:23;;;;;;;60.83;29.33;;;;;;;3.20;88.87;103480.88;5053164;28;20100;-78
2022/01/25 03:43:58;;;;;;;60.42;30.10;;;;;;;3.18;89.34;103472.09;5052930;28;20108;-77
2022/01/25 03:51:42;;;;;;;60.67;28.23;;;;;;;3.22;88.99;103473.06;5053024;28;20078;-77
2022/01/25 03:54:08;;;;;;;62.40;29.33;;;;;;;3.20;89.12;103472.16;5052437;28;20480;-77
2022/01/25 03:56:34;;;;;;;63.13;29.73;;;;;;;3.17;89.80;103472.97;5053480;28;20025;-76
2022/01/25 03:59:00;;;;;;;63.40;30.05;;;;;;;3.18;89.23;103471.22;5052884;28;20415;-77
2022/01/25 04:01:25;;;;;;;65.00;29.05;;;;;;;3.20;88.80;103459.94;5052750;28;20040;-78
2022/01/25 04:04:03;;;;;;;58.25;28.45;;;;;;;3.21;88.08;103471.28;5052858;28;20110;-77
2022/01/25 04:06:31;;;;;;;60.92;27.70;;;;;;;3.23;88.07;103465.25;5053117;28;20044;-76
2022/01/25 04:08:58;;;;;;;59.08;27.85;;;;;;;3.24;87.65;103468.78;5052896;28;20021;-77
2022/01/25 04:11:24;;;;;;;59.95;28.08;;;;;;;3.22;88.03;103465.22;5052178;28;20121;-77
2022/01/25 04:13:52;;;;;;;62.53;30.00;;;;;;;3.21;88.13;103455.59;5052225;28;20056;-76
2022/01/25 04:16:22;;;;;;;60.50;29.40;;;;;;;3.20;88.52;103457.31;5052539;28;20345;-77
2022/01/25 04:26:54;;;;;;;56.83;27.77;;;;;;;3.24;87.18;103456.56;4990525;28;20045;-77
2022/01/25 04:29:19;;;;;;;58.47;27.55;;;;;;;3.23;87.21;103453.91;4991354;28;20038;-77
2022/01/25 04:31:45;;;;;;;62.28;29.27;;;;;;;3.22;88.07;103450.41;4990166;28;20152;-77
2022/01/25 04:37:03;;;;;;;54.22;27.15;;;;;;;3.28;87.22;103444.44;4991047;28;20045;-78
2022/01/25 04:53:17;;;;;;;50.05;24.70;;;;;;;3.23;84.46;103444.31;4990928;28;20137;-77
2022/01/25 04:55:59;;;;;;;51.45;25.25;;;;;;;3.24;84.24;103440.84;4990847;28;20027;-77
2022/01/25 04:58:34;;;;;;;50.83;26.30;;;;;;;3.25;84.35;103439.13;4990427;28;20042;-76
2022/01/25 05:00:59;;;;;;;57.17;26.80;;;;;;;3.26;84.62;103436.56;4990809;28;20486;-76
2022/01/25 05:03:32;;;;;;;57.20;28.52;;;;;;;3.27;84.80;103437.44;5014518;28;20037;-77
2022/01/25 05:06:06;;;;;;;63.30;28.08;;;;;;;3.27;85.23;103434.81;5052297;28;20473;-78
2022/01/25 05:11:11;;;;;;;55.92;27.45;;;;;;;3.24;85.77;103437.34;5051631;28;20580;-77
2022/01/25 05:14:23;;;;;;;56.70;27.50;;;;;;;3.26;86.03;103433.03;5051828;28;20021;-77
2022/01/25 05:16:31;;;;;;;54.10;26.70;;;;;;;3.27;85.24;103429.56;5041361;28;20059;-77
2022/01/25 05:24:49;;;;;;;55.75;27.13;;;;;;;3.26;86.18;103427.78;4989996;28;20054;-76
2022/01/25 05:27:18;;;;;;;58.10;28.02;;;;;;;3.27;86.23;103424.31;4990597;28;20035;-77
2022/01/25 05:29:44;;;;;;;58.90;28.85;;;;;;;3.26;85.74;103427.78;4990134;28;20030;-77
2022/01/25 05:32:09;;;;;;;60.17;28.92;;;;;;;3.23;86.42;103422.47;4989954;28;20398;-77
2022/01/25 05:34:35;;;;;;;55.50;27.38;;;;;;;3.22;85.72;103416.38;4990645;28;20497;-77
2022/01/25 05:37:02;;;;;;;56.95;28.38;;;;;;;3.21;86.08;103429.41;4990229;28;20069;-77
2022/01/25 05:39:31;;;;;;;58.70;29.02;;;;;;;3.22;86.41;103439.03;4989840;28;20049;-79
2022/01/25 05:42:02;;;;;;;54.40;26.58;;;;;;;3.23;86.40;103438.19;4989975;28;20095;-79
2022/01/25 05:44:41;;;;;;;55.20;27.42;;;;;;;3.23;86.31;103433.81;4993427;28;20517;-78
2022/01/25 05:47:08;;;;;;;58.53;28.25;;;;;;;3.24;85.82;103430.38;4994056;28;20375;-78
2022/01/25 05:49:37;;;;;;;55.13;28.65;;;;;;;3.26;85.87;103436.56;4993633;28;20510;-79
2022/01/25 05:52:05;;;;;;;52.58;27.00;;;;;;;3.28;85.92;103432.22;4993415;28;20506;-77
2022/01/25 05:54:31;;;;;;;61.25;30.10;;;;;;;3.30;86.07;103439.25;4993892;28;20038;-78
2022/01/25 05:56:56;;;;;;;56.00;27.88;;;;;;;3.31;85.83;103443.63;4993563;28;20386;-78
2022/01/25 05:59:22;;;;;;;49.70;25.88;;;;;;;3.39;84.84;103435.16;5039792;28;20041;-78
2022/01/25 06:01:48;;;;;;;52.10;27.17;;;;;;;3.38;84.42;103442.97;5054593;28;20029;-77
2022/01/25 06:04:13;;;;;;;57.50;28.50;;;;;;;3.35;85.19;103442.88;5055214;28;20021;-78
2022/01/25 06:06:39;;;;;;;54.63;27.27;;;;;;;3.34;84.69;103443.72;5055367;28;20032;-77
2022/01/25 06:09:04;;;;;;;52.42;27.08;;;;;;;3.36;85.23;103445.53;5055091;28;20059;-77
2022/01/25 06:11:30;;;;;;;52.42;27.10;;;;;;;3.35;84.72;103454.25;5053914;28;20040;-78
2022/01/25 06:13:55;;;;;;;53.80;26.83;;;;;;;3.35;84.94;103453.34;5055133;28;20028;-77
2022/01/25 06:16:21;;;;;;;57.67;27.45;;;;;;;3.31;86.20;103448.88;5055065;28;20464;-78
2022/01/25 06:18:46;;;;;;;53.67;26.90;;;;;;;3.32;86.01;103441.06;5055006;28;20033;-77
2022/01/25 06:21:11;;;;;;;57.28;28.35;;;;;;;3.32;85.76;103437.56;5054782;28;20025;-77
2022/01/25 06:23:37;;;;;;;59.33;29.08;;;;;;;3.31;85.61;103441.91;5036812;28;20021;-77
2022/01/25 06:26:03;;;;;;;55.83;28.50;;;;;;;3.27;86.79;103440.94;5052016;28;20075;-78
2022/01/25 06:28:28;;;;;;;64.07;30.45;;;;;;;3.27;86.81;103451.44;5034432;28;20452;-79
2022/01/25 06:30:53;;;;;;;60.30;29.02;;;;;;;3.26;87.08;103456.59;5035071;28;20113;-78
2022/01/25 06:33:19;;;;;;;58.35;29.10;;;;;;;3.26;86.96;103456.59;5043586;28;20092;-78
2022/01/25 06:35:46;;;;;;;59.58;28.50;;;;;;;3.27;86.81;103454.03;5042028;28;20021;-78
2022/01/25 06:38:12;;;;;;;59.53;27.85;;;;;;;3.26;86.38;103460.13;5034607;28;20029;-77
2022/01/25 06:40:38;;;;;;;57.53;27.27;;;;;;;3.35;86.25;103453.34;5034735;28;20030;-76
2022/01/25 06:43:03;;;;;;;52.78;27.13;;;;;;;3.31;85.95;103456.72;5048103;28;20078;-77
2022/01/25 06:45:28;;;;;;;55.25;27.50;;;;;;;3.26;85.92;103460.13;5054027;28;20078;-77
2022/01/25 06:47:54;;;;;;;56.65;26.77;;;;;;;3.25;85.32;103460.09;5053974;28;20052;-78
2022/01/25 06:50:24;;;;;;;58.53;28.17;;;;;;;3.23;85.79;103459.13;5054177;28;20032;-78
2022/01/25 06:52:51;;;;;;;57.20;27.23;;;;;;;3.28;85.51;103460.16;5053589;28;20032;-77
2022/01/25 06:55:18;;;;;;;55.53;28.40;;;;;;;3.27;85.96;103458.38;5052588;28;20469;-78
2022/01/25 06:57:45;;;;;;;54.83;27.33;;;;;;;3.24;85.87;103453.94;5053427;28;20100;-78
2022/01/25 07:00:16;;;;;;;57.33;28.17;;;;;;;3.24;85.23;103451.31;5053537;28;20025;-78
2022/01/25 07:02:42;;;;;;;57.28;27.80;;;;;;;3.23;85.62;103459.13;5053445;28;20032;-78
2022/01/25 07:05:08;;;;;;;55.55;26.88;;;;;;;3.23;86.01;103464.38;5054326;28;20028;-78
2022/01/25 07:07:35;;;;;;;60.35;27.70;;;;;;;3.21;85.86;103466.97;5053690;28;20104;-78
2022/01/25 07:10:00;;;;;;;55.42;26.65;;;;;;;3.22;86.01;103463.50;5053740;28;20634;-77
2022/01/25 07:12:29;;;;;;;54.35;27.05;;;;;;;3.22;86.11;103459.97;5053988;28;20082;-78
2022/01/25 07:14:54;;;;;;;60.30;28.55;;;;;;;3.20;85.22;103472.16;5052769;28;20033;-77
2022/01/25 07:17:20;;;;;;;59.63;28.92;;;;;;;3.20;85.73;103461.69;5036031;28;20035;-77
2022/01/25 07:19:45;;;;;;;54.13;26.73;;;;;;;3.17;85.92;103469.44;5053395;28;20029;-77
2022/01/25 07:22:10;;;;;;;54.85;27.63;;;;;;;3.15;85.65;103469.41;5051440;28;20095;-76
2022/01/25 07:24:36;;;;;;;56.42;27.10;;;;;;;3.14;85.03;103475.47;5051633;28;20021;-77
2022/01/25 07:27:02;;;;;;;56.20;27.95;;;;;;;3.16;85.19;103473.81;5052326;28;20461;-77
2022/01/25 07:29:27;;;;;;;52.45;27.67;;;;;;;3.19;85.21;103475.63;5052876;28;20028;-77
2022/01/25 07:31:53;;;;;;;57.13;27.13;;;;;;;3.20;85.44;103480.03;5053254;28;20029;-76
2022/01/25 07:34:18;;;;;;;55.40;27.65;;;;;;;3.18;85.40;103474.72;5052447;28;20052;-78
2022/01/25 07:36:44;;;;;;;56.95;27.58;;;;;;;3.17;85.55;103478.19;5053364;28;20211;-76
2022/01/25 07:39:10;;;;;;;57.45;26.05;;;;;;;3.17;85.10;103475.59;5052823;28;20032;-78
2022/01/25 07:41:36;;;;;;;58.45;27.33;;;;;;;3.17;85.14;103480.81;5033553;28;20104;-77
2022/01/25 07:44:02;;;;;;;61.92;30.08;;;;;;;3.19;85.61;103471.25;5050872;28;20032;-79
2022/01/25 07:46:29;;;;;;;59.35;28.73;;;;;;;3.21;85.55;103476.53;5052233;28;20580;-79
2022/01/25 07:48:55;;;;;;;61.72;29.05;;;;;;;3.27;85.61;103479.31;5052269;28;20032;-78
2022/01/25 07:51:21;;;;;;;61.78;29.10;;;;;;;3.23;85.32;103475.72;5046800;28;20542;-79
2022/01/25 07:53:46;;;;;;;60.58;28.98;;;;;;;3.32;84.56;103469.88;5045954;28;20025;-78
2022/01/25 07:56:12;;;;;;;57.47;28.38;;;;;;;3.30;84.91;103465.44;5050536;28;20016;-78
2022/01/25 07:58:37;;;;;;;61.80;28.92;;;;;;;3.25;84.06;103462.72;5041432;28;20114;-78
2022/01/25 08:01:04;;;;;;;64.57;29.58;;;;;;;3.28;84.33;103465.41;5026150;28;20033;-78
2022/01/25 08:03:29;;;;;;;66.25;30.15;;;;;;;3.28;85.19;103463.66;5053423;28;20380;-78
2022/01/25 08:05:55;;;;;;;65.30;29.55;;;;;;;3.25;84.73;103467.94;5051584;28;20035;-77
2022/01/25 08:08:20;;;;;;;64.38;30.13;;;;;;;3.22;84.43;103468.75;5051916;28;20496;-78
2022/01/25 08:10:46;;;;;;;59.83;28.67;;;;;;;3.23;84.82;103467.00;5050422;28;20029;-77
2022/01/25 08:13:11;;;;;;;57.83;27.75;;;;;;;3.23;85.21;103467.00;5057040;28;20446;-78
2022/01/25 08:15:37;;;;;;;59.08;28.15;;;;;;;3.25;85.18;103468.81;5051276;28;20053;-78
2022/01/25 08:18:02;;;;;;;65.20;30.05;;;;;;;3.27;84.81;103467.13;5052294;28;20029;-77
2022/01/25 08:20:27;;;;;;;60.97;28.05;;;;;;;3.30;84.64;103463.72;5052015;28;20106;-77
2022/01/25 08:22:53;;;;;;;60.15;28.83;;;;;;;3.28;84.70;103463.66;5051338;28;20389;-78
2022/01/25 08:25:19;;;;;;;65.03;30.15;;;;;;;3.33;84.51;103468.16;5044923;28;20021;-78
2022/01/25 08:27:45;;;;;;;61.65;29.13;;;;;;;3.32;84.50;103462.00;5021547;28;20030;-76
2022/01/25 08:30:12;;;;;;;63.25;29.38;;;;;;;3.36;84.94;103456.00;5056780;28;20036;-78
2022/01/25 08:32:37;;;;;;;70.93;30.08;;;;;;;3.40;85.71;103459.59;5054633;28;20124;-77
2022/01/25 08:35:03;;;;;;;63.22;28.95;;;;;;;3.37;85.15;103459.53;5036386;28;20100;-77
2022/01/25 08:37:28;;;;;;;65.03;30.10;;;;;;;3.43;84.27;103449.22;5052535;28;20037;-77
2022/01/25 08:39:54;;;;;;;66.00;30.05;;;;;;;3.40;84.40;103451.75;5044588;28;20025;-78
2022/01/25 08:42:20;;;;;;;62.33;29.42;;;;;;;3.33;84.51;103460.28;5041631;28;20029;-77
2022/01/25 08:44:46;;;;;;;62.83;29.55;;;;;;;3.36;84.95;103452.50;5050692;28;20139;-77
2022/01/25 08:47:11;;;;;;;65.30;30.15;;;;;;;3.38;83.95;103458.69;5047539;28;21686;-77
2022/01/25 08:49:38;;;;;;;66.88;31.20;;;;;;;3.49;82.95;103464.22;5051676;28;20031;-77
2022/01/25 08:52:04;;;;;;;60.85;28.48;;;;;;;3.49;83.83;103456.34;5049585;28;20029;-77
2022/01/25 08:54:29;;;;;;;67.15;28.75;;;;;;;3.53;83.87;103461.72;5051224;28;20027;-77
2022/01/25 08:56:55;;;;;;;60.42;28.95;;;;;;;3.53;83.73;103464.34;5052122;28;20103;-79
2022/01/25 08:59:21;;;;;;;61.83;29.77;;;;;;;3.58;84.06;103465.34;5051991;28;20079;-78
2022/01/25 09:01:46;;;;;;;65.35;30.48;;;;;;;3.57;83.49;103460.06;5051583;28;20075;-77
2022/01/25 09:04:12;;;;;;;61.40;29.30;;;;;;;3.56;83.67;103464.41;5049280;28;20021;-78
2022/01/25 09:06:37;;;;;;;65.13;30.85;;;;;;;3.60;83.53;103478.47;5052065;28;20021;-77
2022/01/25 09:09:09;;;;;;;64.03;29.50;;;;;;;3.62;84.27;103479.44;5051397;28;20469;-76
2022/01/25 09:11:35;;;;;;;73.70;31.23;;;;;;;3.67;83.97;103474.28;5051763;28;20408;-77
2022/01/25 09:14:01;;;;;;;64.75;30.17;;;;;;;3.77;83.38;103478.91;5051602;28;20388;-76
2022/01/25 09:16:26;;;;;;;66.78;31.55;;;;;;;3.73;83.62;103472.75;5051323;28;20021;-76
2022/01/25 09:18:52;;;;;;;63.72;30.05;;;;;;;3.71;83.44;103477.03;5051674;28;20026;-77
2022/01/25 09:21:18;;;;;;;67.47;30.58;;;;;;;3.70;83.68;103470.03;5048719;28;20350;-77
2022/01/25 09:23:43;;;;;;;63.20;29.58;;;;;;;3.71;83.65;103474.41;5056146;28;20031;-77
2022/01/25 09:26:09;;;;;;;65.53;29.35;;;;;;;3.70;83.54;103474.38;5056395;28;20056;-78
2022/01/25 09:28:34;;;;;;;64.55;29.48;;;;;;;3.71;83.08;103471.81;5055098;28;20025;-77
2022/01/25 09:31:01;;;;;;;69.07;29.83;;;;;;;3.72;83.59;103480.53;5053764;28;20029;-78
2022/01/25 09:33:27;;;;;;;64.95;29.25;;;;;;;3.73;83.09;103477.97;5045837;28;20044;-77
2022/01/25 09:35:54;;;;;;;63.17;28.45;;;;;;;3.76;83.53;103478.06;5056002;28;20028;-77
2022/01/25 09:38:20;;;;;;;62.65;28.23;;;;;;;3.86;82.95;103484.44;5055365;28;20028;-77
2022/01/25 09:40:46;;;;;;;59.13;27.38;;;;;;;3.77;82.45;103495.56;5056057;28;20028;-77
2022/01/25 09:43:12;;;;;;;63.13;29.90;;;;;;;3.69;83.12;103498.81;5037685;28;20117;-77
2022/01/25 09:45:38;;;;;;;63.47;30.13;;;;;;;3.65;83.17;103491.72;5054810;28;20064;-74
2022/01/25 09:48:05;;;;;;;63.88;28.80;;;;;;;3.70;82.79;103496.22;5054950;28;20052;-76
2022/01/25 09:50:31;;;;;;;60.67;28.98;;;;;;;3.77;83.04;103497.28;5058153;28;20032;-77
2022/01/25 09:52:56;;;;;;;64.60;29.45;;;;;;;3.83;83.45;103499.19;5055932;28;20035;-77
2022/01/25 09:55:25;;;;;;;67.25;30.27;;;;;;;3.80;82.70;103500.00;5055443;28;20028;-78
2022/01/25 09:57:50;;;;;;;65.00;30.08;;;;;;;3.75;82.68;103501.59;5055284;28;20044;-77
2022/01/25 10:00:20;;;;;;;61.95;29.38;;;;;;;3.74;83.38;103505.94;5054422;28;20457;-77
2022/01/25 10:02:59;;;;;;;69.55;31.27;;;;;;;3.76;83.47;103512.13;5054941;28;20109;-77
2022/01/25 10:05:31;;;;;;;69.80;30.45;;;;;;;3.82;83.17;103514.00;5051374;28;20060;-77
2022/01/25 10:08:02;;;;;;;61.88;28.70;;;;;;;3.93;82.70;103504.69;5055371;28;20104;-77
2022/01/25 10:10:30;;;;;;;60.45;29.10;;;;;;;3.91;81.55;103509.03;5037636;28;20372;-76
2022/01/25 10:13:06;;;;;;;65.15;30.35;;;;;;;3.90;82.13;103519.44;5054969;28;20480;-78
2022/01/25 10:15:32;;;;;;;66.38;30.58;;;;;;;3.93;82.04;103523.03;5054780;28;20025;-76
2022/01/25 10:17:57;;;;;;;65.70;29.35;;;;;;;3.92;82.43;103518.63;5054923;28;20033;-78
2022/01/25 10:20:31;;;;;;;64.95;29.05;;;;;;;3.95;82.41;103517.84;5055249;28;20075;-76
2022/01/25 10:22:59;;;;;;;66.57;29.40;;;;;;;4.01;82.40;103535.47;5054697;28;20103;-78
2022/01/25 10:25:40;;;;;;;66.18;28.90;;;;;;;4.06;83.10;103528.63;5055017;28;20480;-79
2022/01/25 10:28:13;;;;;;;62.92;28.15;;;;;;;4.07;81.94;103525.16;5054670;28;20075;-75
2022/01/25 10:30:45;;;;;;;65.53;29.20;;;;;;;4.09;81.27;103523.44;5052907;28;20276;-78
2022/01/25 10:33:20;;;;;;;63.35;28.33;;;;;;;3.97;81.30;103528.38;5054678;28;20033;-76
2022/01/25 10:35:45;;;;;;;64.25;28.83;;;;;;;3.89;81.82;103534.31;5055204;28;20123;-75
2022/01/25 10:38:22;;;;;;;65.10;30.20;;;;;;;3.82;81.97;103528.84;5054506;28;20057;-76
2022/01/25 10:40:59;;;;;;;63.10;28.40;;;;;;;3.79;82.88;103539.28;5054548;28;20029;-77
2022/01/25 10:43:28;;;;;;;65.40;29.85;;;;;;;3.73;82.70;103527.78;5054223;28;20029;-76
2022/01/25 10:46:16;;;;;;;64.10;29.13;;;;;;;3.73;82.45;103537.34;5046489;28;20028;-76
2022/01/25 10:48:45;;;;;;;67.82;28.50;;;;;;;3.72;82.30;103527.72;5047341;28;20038;-75
2022/01/25 10:51:23;;;;;;;61.95;27.48;;;;;;;3.81;82.39;103534.94;5054097;28;20099;-77
2022/01/25 10:54:13;;;;;;;64.15;27.85;;;;;;;3.88;82.03;103534.25;5036288;28;20025;-77
2022/01/25 10:56:42;;;;;;;64.40;28.67;;;;;;;4.01;81.73;103538.09;5054644;28;20033;-77
2022/01/25 10:59:11;;;;;;;66.90;28.60;;;;;;;4.09;80.80;103532.22;5054125;28;20029;-77
2022/01/25 11:01:38;;;;;;;68.93;31.38;;;;;;;3.98;81.42;103525.78;5054267;28;20159;-76
2022/01/25 11:04:15;;;;;;;66.68;28.90;;;;;;;4.00;82.31;103524.06;5053680;28;20032;-76
2022/01/25 11:06:42;;;;;;;72.18;29.10;;;;;;;4.02;81.18;103537.25;5054063;28;20025;-77
2022/01/25 11:09:10;;;;;;;65.43;29.42;;;;;;;4.03;81.60;103539.91;5053882;28;20396;-76
2022/01/25 11:11:40;;;;;;;63.65;29.10;;;;;;;4.03;81.72;103532.03;5048080;28;20021;-77
2022/01/25 11:16:53;;;;;;;66.22;28.77;;;;;;;4.08;80.15;103529.56;5054466;28;20040;-77
2022/01/25 11:19:20;;;;;;;62.92;28.05;;;;;;;4.08;80.84;103526.94;5053980;28;20036;-76
2022/01/25 11:21:48;;;;;;;66.55;29.60;;;;;;;4.10;80.87;103534.00;5054142;28;20026;-77
2022/01/25 11:24:15;;;;;;;67.43;29.17;;;;;;;4.09;80.68;103528.69;5053020;28;20028;-77
2022/01/25 11:26:45;;;;;;;65.15;29.02;;;;;;;4.04;80.70;103522.44;5051389;28;20035;-76
2022/01/25 11:29:10;;;;;;;63.83;29.65;;;;;;;4.05;81.23;103521.59;5052976;28;20499;-76
2022/01/25 11:31:41;;;;;;;64.75;29.40;;;;;;;4.06;80.93;103526.00;5053756;28;20041;-76
2022/01/25 11:34:12;;;;;;;71.10;31.02;;;;;;;4.03;81.54;103521.56;5052796;28;20035;-77
2022/01/25 11:36:50;;;;;;;62.70;28.65;;;;;;;4.08;81.35;103521.69;5053184;28;20033;-76
2022/01/25 11:39:19;;;;;;;64.38;29.65;;;;;;;4.22;80.71;103516.75;5053242;28;20052;-77
2022/01/25 11:41:45;;;;;;;67.72;29.85;;;;;;;4.15;80.89;103515.72;5052878;28;20028;-76
2022/01/25 11:44:18;;;;;;;65.90;29.13;;;;;;;4.16;80.80;103519.25;5045687;28;20030;-75
2022/01/25 11:46:50;;;;;;;69.22;29.80;;;;;;;4.16;80.92;103509.63;5052987;28;20037;-77
2022/01/25 11:49:19;;;;;;;74.95;29.77;;;;;;;4.12;80.58;103499.03;5053170;28;20036;-76
2022/01/25 11:52:03;;;;;;;67.55;29.10;;;;;;;4.06;80.82;103499.78;5047188;28;20051;-76
2022/01/25 11:54:29;;;;;;;69.78;29.63;;;;;;;4.02;81.51;103505.78;5044700;28;20035;-76
2022/01/25 11:57:08;;;;;;;67.78;29.63;;;;;;;3.99;81.44;103503.06;5051770;28;20025;-76
2022/01/25 11:59:35;;;;;;;62.95;28.70;;;;;;;3.98;82.00;103506.53;5047697;28;20465;-75
2022/01/25 12:02:00;;;;;;;63.10;29.02;;;;;;;4.03;81.80;103500.59;5052804;28;20063;-77
2022/01/25 12:04:29;;;;;;;71.93;31.15;;;;;;;4.02;81.21;103487.44;5052722;28;20459;-76
2022/01/25 12:07:01;;;;;;;65.47;29.10;;;;;;;4.06;81.44;103487.53;5052819;28;20039;-77
2022/01/25 12:09:47;;;;;;;68.20;29.98;;;;;;;4.08;81.61;103485.84;5052963;28;20100;-77
2022/01/25 12:12:14;;;;;;;67.72;29.90;;;;;;;4.10;82.06;103481.53;5052559;28;20029;-76
2022/01/25 12:14:43;;;;;;;66.13;30.83;;;;;;;4.17;82.02;103479.03;5053467;28;20025;-76
2022/01/25 12:17:17;;;;;;;67.10;29.45;;;;;;;4.20;82.17;103477.38;5052970;28;20025;-76
2022/01/25 12:19:51;;;;;;;71.53;30.20;;;;;;;4.22;82.78;103473.06;5050375;28;20115;-76
2022/01/25 12:22:26;;;;;;;68.07;29.70;;;;;;;4.24;82.14;103471.34;5050132;28;20730;-76
2022/01/25 12:25:05;;;;;;;64.43;30.30;;;;;;;4.26;82.59;103468.78;5038501;28;20037;-76
2022/01/25 12:27:35;;;;;;;64.80;29.85;;;;;;;4.31;82.14;103468.88;5049083;28;20532;-77
2022/01/25 12:30:04;;;;;;;71.05;30.63;;;;;;;4.35;81.81;103473.34;5045278;28;20386;-75
2022/01/25 12:32:36;;;;;;;67.32;30.80;;;;;;;4.39;81.37;103472.59;5052356;28;20036;-77
2022/01/25 12:35:14;;;;;;;67.32;30.83;;;;;;;4.36;80.01;103467.25;5052741;28;20109;-75
2022/01/25 12:37:42;;;;;;;67.15;30.25;;;;;;;4.28;81.10;103463.59;5052523;28;20029;-75
2022/01/25 12:40:26;;;;;;;64.72;29.05;;;;;;;4.28;81.20;103456.59;5052224;28;20033;-76
2022/01/25 12:42:56;;;;;;;64.03;29.70;;;;;;;4.32;81.62;103463.66;5052610;28;20109;-77
2022/01/25 12:45:24;;;;;;;68.40;31.15;;;;;;;4.30;81.40;103446.13;5052788;28;20029;-76
2022/01/25 12:47:51;;;;;;;69.07;31.38;;;;;;;4.34;81.23;103438.38;5052594;28;20049;-76
2022/01/25 12:50:17;;;;;;;69.82;30.58;;;;;;;4.31;80.78;103440.03;5052527;28;20485;-76
2022/01/25 12:52:45;;;;;;;70.68;32.70;;;;;;;4.27;80.86;103446.94;5051341;28;20139;-76
2022/01/25 12:55:10;;;;;;;69.18;31.50;;;;;;;4.28;81.32;103432.97;5051460;28;20354;-76
2022/01/25 12:57:36;;;;;;;70.15;30.60;;;;;;;4.30;81.88;103439.16;5052862;28;20050;-76
2022/01/25 13:00:04;;;;;;;67.57;30.45;;;;;;;4.28;80.76;103432.09;5051965;28;20036;-76
2022/01/25 13:02:29;;;;;;;69.80;31.08;;;;;;;4.23;80.27;103429.34;5065541;28;20036;-76
2022/01/25 13:04:55;;;;;;;70.38;30.95;;;;;;;4.23;81.56;103421.50;5052549;28;20021;-76
2022/01/25 13:07:20;;;;;;;72.22;31.17;;;;;;;4.22;81.95;103424.97;5052473;28;20469;-76